Anglian Lady — VOLP — position and weather

sailwx.info

Track history (hours):
 
Tides and Currents Weather Stations Pressure Air Temp Water Temp Dewpoint Dewpoint Depression Visibility Wind Speed Wind Dir Waves Ship Positions

Anglian Lady

Last reported at 2017-Jan-17 01:33 UTC. Time now 2017-Feb-28 17:16 UTC.
Position N 45°51' W 084°27'.
Warning: this ship's position is 42 days out of date.

Length 32 m.

Type: Tug. MMSI: 316002238.

Date/timePositionNaut miles runAvg speedWind from/ knotsBaromVisibWave heightAir tempDewpointWater temp
2017-Jan-17 01:33N 45°51' W 084°27'9 8.7
2017-Jan-17 00:33N 45°50' W 084°40'6 5.6
2017-Jan-16 23:33N 45°49' W 084°48'3 3.1
2017-Jan-16 22:33N 45°50' W 084°52'0 0.2
2017-Jan-16 21:33N 45°50' W 084°52'2 1.8
2017-Jan-16 20:33N 45°50' W 084°55'4 4.1
2017-Jan-16 19:33N 45°50' W 085°01'7 6.8
2017-Jan-16 18:33N 45°51' W 085°10'1 0.5
2017-Jan-16 17:33N 45°51' W 085°11'1 1.1
2017-Jan-16 16:33N 45°51' W 085°13'11 8.8
2017-Jan-16 15:21N 45°53' W 085°28'7 8.6
2017-Jan-16 14:33N 45°52' W 085°37'9 9.2
2017-Jan-16 13:33N 45°47' W 085°48'9 9.1
2017-Jan-16 12:33N 45°41' W 085°58'  
2017-Jan-11 22:33N 45°53' W 085°27'12 4.0
2017-Jan-11 19:33N 45°51' W 085°10'8 6.7
2017-Jan-11 18:25N 45°50' W 084°59'22 1.2
2017-Jan-10 23:28N 45°48' W 084°27'0 0.0
2017-Jan-10 15:31N 45°48' W 084°27'0 0.0
2017-Jan-10 14:33N 45°48' W 084°27'0 0.0
2017-Jan-10 13:33N 45°48' W 084°27'0 0.0
2017-Jan-10 12:32N 45°48' W 084°27'0 0.0
2017-Jan-10 11:33N 45°48' W 084°27'0 0.0
2017-Jan-10 10:33N 45°48' W 084°27'0 0.0
2017-Jan-10 08:21N 45°48' W 084°27'0 0.0
2017-Jan-10 07:22N 45°48' W 084°27'0 0.0
2017-Jan-10 06:33N 45°48' W 084°27'0 0.0
2017-Jan-10 05:32N 45°48' W 084°27'0 0.2
2017-Jan-10 04:09N 45°48' W 084°27'3 5.3
2017-Jan-10 03:33N 45°50' W 084°31'5 5.3
2017-Jan-10 02:33N 45°50' W 084°39'  
Track history (hours):
 
Tides and Currents Weather Stations Pressure Air Temp Water Temp Dewpoint Dewpoint Depression Visibility Wind Speed Wind Dir Waves Ship Positions

Anglian Lady

Last reported at 2017-Jan-17 01:33 UTC. Time now 2017-Feb-28 17:16 UTC.
Position N 45°51' W 084°27'.
Warning: this ship's position is 42 days out of date.

Length 32 m.

Type: Tug. MMSI: 316002238.

Date/timePositionNaut miles runAvg speedWind from/ knotsBaromVisibWave heightAir tempDewpointWater temp
2017-Jan-17 01:33N 45°51' W 084°27'9 8.7
2017-Jan-17 00:33N 45°50' W 084°40'6 5.6
2017-Jan-16 23:33N 45°49' W 084°48'3 3.1
2017-Jan-16 22:33N 45°50' W 084°52'0 0.2
2017-Jan-16 21:33N 45°50' W 084°52'2 1.8
2017-Jan-16 20:33N 45°50' W 084°55'4 4.1
2017-Jan-16 19:33N 45°50' W 085°01'7 6.8
2017-Jan-16 18:33N 45°51' W 085°10'1 0.5
2017-Jan-16 17:33N 45°51' W 085°11'1 1.1
2017-Jan-16 16:33N 45°51' W 085°13'11 8.8
2017-Jan-16 15:21N 45°53' W 085°28'7 8.6
2017-Jan-16 14:33N 45°52' W 085°37'9 9.2
2017-Jan-16 13:33N 45°47' W 085°48'9 9.1
2017-Jan-16 12:33N 45°41' W 085°58'  
2017-Jan-11 22:33N 45°53' W 085°27'12 4.0
2017-Jan-11 19:33N 45°51' W 085°10'8 6.7
2017-Jan-11 18:25N 45°50' W 084°59'22 1.2
2017-Jan-10 23:28N 45°48' W 084°27'0 0.0
2017-Jan-10 15:31N 45°48' W 084°27'0 0.0
2017-Jan-10 14:33N 45°48' W 084°27'0 0.0
2017-Jan-10 13:33N 45°48' W 084°27'0 0.0
2017-Jan-10 12:32N 45°48' W 084°27'0 0.0
2017-Jan-10 11:33N 45°48' W 084°27'0 0.0
2017-Jan-10 10:33N 45°48' W 084°27'0 0.0
2017-Jan-10 08:21N 45°48' W 084°27'0 0.0
2017-Jan-10 07:22N 45°48' W 084°27'0 0.0
2017-Jan-10 06:33N 45°48' W 084°27'0 0.0
2017-Jan-10 05:32N 45°48' W 084°27'0 0.2
2017-Jan-10 04:09N 45°48' W 084°27'3 5.3
2017-Jan-10 03:33N 45°50' W 084°31'5 5.3
2017-Jan-10 02:33N 45°50' W 084°39'  

Dump ship's entire track history